Time;durP1;ratioP1;P1;durP2;ratioP2;P2;SDS_P1;SDS_P2;PMS_P1;PMS_P2;Temp;Humidity;BMP_temperature;BMP_pressure;BME280_temperature;BME280_humidity;BME280_pressure;Samples;Min_cycle;Max_cycle;Signal;HPM_P1;HPM_P2
2021/10/08 08:00:17;;;;;;;0.13;0.13;;;7.60;99.90;;;;;;6291015;22;1378533;-90
2021/10/08 08:02:44;;;;;;;0.32;0.32;;;7.70;99.90;;;;;;6271564;23;20095;-92
2021/10/08 08:05:12;;;;;;;0.00;0.00;;;7.90;99.90;;;;;;6221341;23;20063;-92
2021/10/08 08:07:39;;;;;;;0.03;0.03;;;8.50;99.90;;;;;;6221881;23;20012;-92
2021/10/08 08:10:08;;;;;;;0.20;0.20;;;8.00;99.90;;;;;;6246481;23;20008;-92
2021/10/08 08:12:36;;;;;;;0.00;0.00;;;7.80;99.90;;;;;;6246419;23;20444;-92
2021/10/08 08:15:04;;;;;;;0.10;0.10;;;8.30;99.90;;;;;;6246601;23;20425;-94
2021/10/08 08:17:30;;;;;;;0.10;0.10;;;8.50;99.90;;;;;;6246917;23;20460;-93
2021/10/08 08:20:00;;;;;;;0.10;0.10;;;8.50;99.90;;;;;;6247013;23;20012;-94
2021/10/08 08:22:27;;;;;;;0.10;0.10;;;8.70;99.90;;;;;;6246651;23;20070;-94
2021/10/08 08:24:54;;;;;;;0.00;0.00;;;8.80;99.90;;;;;;6247038;23;20016;-95
2021/10/08 08:27:21;;;;;;;0.13;0.10;;;8.90;99.90;;;;;;6246684;23;20012;-94
2021/10/08 08:29:48;;;;;;;0.10;0.10;;;9.10;99.90;;;;;;6246892;23;20008;-95
2021/10/08 08:35:12;;;;;;;0.03;0.03;;;9.30;99.90;;;;;;6272122;23;20480;-95
2021/10/08 08:37:54;;;;;;;;;;;;;;;;;;;;;
2021/10/08 08:40:35;;;;;;;0.10;0.10;;;9.50;99.90;;;;;;6249482;23;20012;-95
2021/10/08 08:43:07;;;;;;;0.00;0.00;;;9.70;99.90;;;;;;6247965;23;20012;-96
2021/10/08 08:45:40;;;;;;;0.00;0.00;;;9.80;99.90;;;;;;6246711;23;20046;-93
2021/10/08 08:48:11;;;;;;;0.00;0.00;;;9.90;99.90;;;;;;6245623;23;20041;-93
2021/10/08 08:50:46;;;;;;;0.03;0.03;;;10.10;99.90;;;;;;6221342;23;20019;-93
2021/10/08 08:53:16;;;;;;;0.10;0.10;;;10.60;99.90;;;;;;6246077;23;20043;-93
2021/10/08 08:55:51;;;;;;;2.30;0.63;;;10.40;99.90;;;;;;6245812;23;20034;-94
2021/10/08 08:58:18;;;;;;;0.10;0.10;;;10.00;99.90;;;;;;6192271;23;20047;-94
2021/10/08 09:00:55;;;;;;;0.00;0.00;;;10.60;99.90;;;;;;6238809;23;20074;-94
2021/10/08 09:03:22;;;;;;;0.10;0.10;;;10.80;99.90;;;;;;6238934;23;20393;-94
2021/10/08 09:05:49;;;;;;;0.10;0.10;;;10.80;99.90;;;;;;6214231;23;20016;-91
2021/10/08 09:08:16;;;;;;;0.10;0.10;;;11.00;99.90;;;;;;6238637;23;20012;-94
2021/10/08 09:10:46;;;;;;;0.10;0.08;;;11.10;99.90;;;;;;6239215;23;20066;-94
2021/10/08 09:13:15;;;;;;;0.00;0.00;;;11.20;99.90;;;;;;6238854;23;20016;-94
2021/10/08 09:15:58;;;;;;;0.00;0.00;;;11.30;99.90;;;;;;6239196;23;20332;-93
2021/10/08 09:18:27;;;;;;;0.00;0.00;;;11.40;99.90;;;;;;6238575;23;20146;-94
2021/10/08 09:21:16;;;;;;;0.10;0.10;;;11.50;99.90;;;;;;6239042;23;20034;-92
2021/10/08 09:23:47;;;;;;;0.00;0.00;;;11.70;99.90;;;;;;6238580;23;20062;-92
2021/10/08 09:26:17;;;;;;;0.00;0.00;;;11.80;99.90;;;;;;6237802;23;20059;-91
2021/10/08 09:28:54;;;;;;;0.38;0.10;;;12.00;99.90;;;;;;6239175;23;20090;-91
2021/10/08 09:31:37;;;;;;;0.10;0.10;;;12.10;99.90;;;;;;6238718;23;20043;-92
2021/10/08 09:34:23;;;;;;;0.00;0.00;;;12.30;99.90;;;;;;6238802;23;20012;-93
2021/10/08 09:36:57;;;;;;;0.00;0.00;;;12.40;99.90;;;;;;6238926;23;20016;-91
2021/10/08 09:39:36;;;;;;;0.00;0.00;;;12.50;99.90;;;;;;6238312;23;20066;-92
2021/10/08 09:42:08;;;;;;;0.10;0.10;;;12.30;99.90;;;;;;6239452;23;20020;-92
2021/10/08 09:44:43;;;;;;;0.00;0.00;;;12.70;99.90;;;;;;6238963;23;20012;-92
2021/10/08 09:47:13;;;;;;;0.00;0.00;;;12.80;99.90;;;;;;6238240;23;20016;-92
2021/10/08 09:49:41;;;;;;;0.00;0.00;;;12.90;99.90;;;;;;6239101;23;20012;-92
2021/10/08 09:52:28;;;;;;;0.63;0.40;;;13.10;99.90;;;;;;6238542;23;20482;-91
2021/10/08 09:55:07;;;;;;;0.35;0.20;;;13.20;99.90;;;;;;6214326;23;20019;-91
2021/10/08 09:57:49;;;;;;;0.08;0.08;;;13.30;99.90;;;;;;6238938;23;20016;-91
2021/10/08 10:00:35;;;;;;;0.03;0.03;;;13.40;99.90;;;;;;6237869;22;20054;-92
2021/10/08 10:03:07;;;;;;;0.10;0.10;;;13.50;99.90;;;;;;6238799;23;20016;-92
2021/10/08 10:05:35;;;;;;;0.15;0.15;;;13.60;99.90;;;;;;6238176;23;20023;-92
2021/10/08 10:08:02;;;;;;;0.10;0.10;;;13.60;99.90;;;;;;6238502;23;20008;-92
2021/10/08 10:10:30;;;;;;;0.10;0.10;;;13.70;99.90;;;;;;6237829;23;20008;-91
2021/10/08 10:12:59;;;;;;;0.10;0.10;;;13.80;99.90;;;;;;6213745;23;20379;-91
2021/10/08 10:15:27;;;;;;;0.10;0.10;;;13.90;99.90;;;;;;6212983;23;20429;-91
2021/10/08 10:17:54;;;;;;;0.00;0.00;;;14.00;99.90;;;;;;6238491;23;20023;-94
2021/10/08 10:20:21;;;;;;;0.10;0.10;;;14.10;99.90;;;;;;6213951;23;20012;-95
2021/10/08 10:22:52;;;;;;;0.03;0.03;;;14.10;99.90;;;;;;6240420;23;20061;-94
2021/10/08 10:29:27;;;;;;;0.00;0.00;;;14.40;99.90;;;;;;6138383;23;20408;-95
2021/10/08 10:31:57;;;;;;;0.00;0.00;;;14.50;99.90;;;;;;6103476;22;20022;-94
2021/10/08 10:42:34;;;;;;;0.03;0.03;;;14.70;99.90;;;;;;6291876;23;20082;-94
2021/10/08 10:45:55;;;;;;;0.00;0.00;;;14.80;99.90;;;;;;6243285;23;20008;-96
2021/10/08 10:49:14;;;;;;;0.15;0.15;;;14.60;99.90;;;;;;6158112;23;20388;-96
2021/10/08 10:52:02;;;;;;;0.20;0.20;;;15.00;99.90;;;;;;6228666;23;20011;-96
2021/10/08 10:54:40;;;;;;;0.20;0.20;;;15.00;99.90;;;;;;6238394;23;20012;-93
2021/10/08 10:57:32;;;;;;;0.00;0.00;;;15.00;99.90;;;;;;6238709;23;20020;-92
2021/10/08 11:00:13;;;;;;;0.20;0.10;;;15.00;99.90;;;;;;6237877;23;20337;-91
2021/10/08 11:02:41;;;;;;;0.22;0.20;;;15.10;99.90;;;;;;6237608;23;20020;-90
2021/10/08 11:05:20;;;;;;;0.10;0.10;;;15.20;99.90;;;;;;6238106;23;20383;-92
2021/10/08 11:08:06;;;;;;;0.17;0.17;;;15.20;99.90;;;;;;6237958;23;20012;-93
2021/10/08 11:10:36;;;;;;;0.55;0.45;;;15.30;99.90;;;;;;6237340;23;20080;-90
2021/10/08 11:13:36;;;;;;;0.20;0.20;;;15.30;99.90;;;;;;6237426;23;20463;-91
2021/10/08 11:16:05;;;;;;;0.13;0.13;;;15.40;99.90;;;;;;6184909;23;20344;-91
2021/10/08 11:18:41;;;;;;;0.70;0.40;;;15.40;99.90;;;;;;6237845;23;20055;-91
2021/10/08 11:21:32;;;;;;;0.50;0.17;;;15.50;99.90;;;;;;6237553;23;20444;-91
2021/10/08 11:24:17;;;;;;;0.47;0.30;;;15.50;99.90;;;;;;6217116;23;20417;-90
2021/10/08 11:26:53;;;;;;;0.80;0.57;;;15.50;99.90;;;;;;6237574;23;20023;-91
2021/10/08 11:29:21;;;;;;;0.32;0.22;;;15.40;99.90;;;;;;6237086;23;20645;-92
2021/10/08 11:31:58;;;;;;;0.20;0.20;;;15.40;99.90;;;;;;6237709;23;20008;-91
2021/10/08 11:34:25;;;;;;;0.40;0.40;;;15.50;99.90;;;;;;6237943;23;20066;-90
2021/10/08 11:37:00;;;;;;;0.30;0.30;;;15.50;99.90;;;;;;6237956;23;20016;-91
2021/10/08 11:39:28;;;;;;;0.53;0.43;;;15.50;99.90;;;;;;6212555;23;20012;-90
2021/10/08 11:42:10;;;;;;;0.65;0.40;;;15.60;99.90;;;;;;6213279;23;20016;-91
2021/10/08 11:44:53;;;;;;;0.50;0.40;;;15.70;99.90;;;;;;6213807;23;20012;-90
2021/10/08 11:47:29;;;;;;;1.05;0.32;;;15.60;99.90;;;;;;6237451;23;20441;-90
2021/10/08 11:50:26;;;;;;;0.40;0.30;;;15.70;99.90;;;;;;6219234;23;20015;-91
2021/10/08 11:52:57;;;;;;;0.20;0.17;;;15.70;99.90;;;;;;6237984;23;20097;-91
2021/10/08 11:55:27;;;;;;;0.25;0.20;;;15.70;99.90;;;;;;6212848;23;20117;-92
2021/10/08 11:58:01;;;;;;;0.57;0.22;;;15.70;99.90;;;;;;6237499;23;20019;-93
2021/10/08 12:00:43;;;;;;;0.55;0.35;;;15.70;99.90;;;;;;6237385;23;20012;-93
2021/10/08 12:03:18;;;;;;;0.80;0.40;;;15.60;99.90;;;;;;6237609;23;20095;-92
2021/10/08 12:05:50;;;;;;;0.50;0.30;;;15.60;99.90;;;;;;6237800;23;20016;-91
2021/10/08 12:08:20;;;;;;;0.95;0.52;;;15.50;99.90;;;;;;6237944;23;20519;-91
2021/10/08 12:10:57;;;;;;;0.17;0.17;;;15.40;99.90;;;;;;6237488;23;20337;-91
2021/10/08 12:13:51;;;;;;;0.10;0.10;;;15.60;99.90;;;;;;6236942;23;20016;-90
2021/10/08 12:16:21;;;;;;;0.20;0.17;;;15.70;99.90;;;;;;6237461;23;20016;-93
2021/10/08 12:18:59;;;;;;;0.20;0.20;;;15.70;99.90;;;;;;6237387;23;20067;-90
2021/10/08 12:21:37;;;;;;;0.28;0.28;;;15.80;99.90;;;;;;6212431;23;20016;-91
2021/10/08 12:24:16;;;;;;;0.30;0.25;;;15.90;99.90;;;;;;6236860;23;20031;-90
2021/10/08 12:26:57;;;;;;;0.52;0.43;;;15.80;99.90;;;;;;6236934;23;20108;-91
2021/10/08 12:29:25;;;;;;;0.20;0.20;;;15.80;99.90;;;;;;6237094;23;20016;-91
2021/10/08 12:31:54;;;;;;;0.75;0.45;;;15.70;99.90;;;;;;6237761;23;20476;-91
2021/10/08 12:34:39;;;;;;;0.55;0.35;;;15.80;99.90;;;;;;6239339;23;20027;-91
2021/10/08 12:37:12;;;;;;;0.38;0.22;;;15.70;99.90;;;;;;6239390;23;20012;-93
2021/10/08 12:39:40;;;;;;;0.73;0.32;;;15.70;99.90;;;;;;6214745;23;20425;-93
2021/10/08 12:42:33;;;;;;;0.30;0.22;;;15.60;99.90;;;;;;6240240;23;20012;-93
2021/10/08 12:45:35;;;;;;;0.10;0.10;;;15.60;99.90;;;;;;6222911;23;20020;-93
2021/10/08 12:48:01;;;;;;;1.45;0.38;;;15.60;99.90;;;;;;6263860;23;20020;-91
2021/10/08 12:50:28;;;;;;;0.85;0.22;;;15.60;99.90;;;;;;6239536;23;20052;-90
2021/10/08 12:52:56;;;;;;;1.17;0.50;;;15.70;99.90;;;;;;6239503;23;20337;-92
2021/10/08 12:55:30;;;;;;;3.03;0.40;;;15.70;99.90;;;;;;6240298;23;20073;-91
2021/10/08 12:58:11;;;;;;;0.80;0.43;;;15.80;99.90;;;;;;6239698;23;20012;-94
2021/10/08 13:00:42;;;;;;;0.10;0.10;;;15.70;99.90;;;;;;6238635;22;20103;-93
2021/10/08 13:03:32;;;;;;;0.63;0.40;;;15.70;99.90;;;;;;6264806;23;20020;-93
2021/10/08 13:06:14;;;;;;;0.45;0.30;;;15.70;99.90;;;;;;6239367;23;20019;-93
2021/10/08 13:09:13;;;;;;;0.30;0.20;;;15.80;99.90;;;;;;6239552;23;20333;-93
2021/10/08 13:11:44;;;;;;;0.68;0.30;;;15.90;99.90;;;;;;6239845;23;20016;-93
2021/10/08 13:14:28;;;;;;;0.85;0.50;;;15.70;99.90;;;;;;6239973;23;20008;-94
2021/10/08 13:16:56;;;;;;;0.15;0.13;;;15.80;99.90;;;;;;6239229;23;20016;-94
2021/10/08 13:19:34;;;;;;;0.20;0.20;;;15.80;99.90;;;;;;6239408;23;20047;-94
2021/10/08 13:22:02;;;;;;;0.25;0.22;;;15.80;99.90;;;;;;6239446;23;20016;-94
2021/10/08 13:24:29;;;;;;;0.82;0.50;;;15.90;99.90;;;;;;6238915;23;20012;-93
2021/10/08 13:27:00;;;;;;;0.75;0.40;;;16.00;99.90;;;;;;6239330;23;20070;-93
2021/10/08 13:29:28;;;;;;;1.10;0.35;;;16.00;99.90;;;;;;6214473;23;20087;-93
2021/10/08 13:31:55;;;;;;;0.57;0.30;;;16.00;99.90;;;;;;6239165;23;20066;-94
2021/10/08 13:34:26;;;;;;;0.50;0.40;;;16.00;99.90;;;;;;6238969;23;20012;-93
2021/10/08 13:36:55;;;;;;;0.30;0.22;;;15.90;99.90;;;;;;6239713;23;20122;-93
2021/10/08 13:39:22;;;;;;;0.22;0.17;;;15.70;99.90;;;;;;6214096;23;20043;-93
2021/10/08 13:41:49;;;;;;;0.15;0.15;;;15.70;99.90;;;;;;6238864;23;20458;-93
2021/10/08 13:44:21;;;;;;;0.20;0.17;;;15.60;99.90;;;;;;6239000;23;20020;-93
2021/10/08 13:46:48;;;;;;;1.08;0.35;;;15.70;99.90;;;;;;6214616;23;20015;-94
2021/10/08 13:49:15;;;;;;;0.50;0.40;;;15.70;99.90;;;;;;6238589;23;20077;-94
2021/10/08 13:51:42;;;;;;;2.33;0.25;;;15.70;99.90;;;;;;6238295;23;20377;-93
2021/10/08 13:54:09;;;;;;;0.20;0.20;;;15.70;99.90;;;;;;6238549;23;20436;-93
2021/10/08 13:56:35;;;;;;;1.02;0.47;;;16.10;99.90;;;;;;6239610;23;20443;-93
2021/10/08 13:59:02;;;;;;;0.85;0.40;;;15.70;99.90;;;;;;6239918;23;20444;-93
2021/10/08 14:01:34;;;;;;;0.75;0.50;;;15.70;99.90;;;;;;6239899;23;20016;-93
2021/10/08 14:04:12;;;;;;;0.75;0.40;;;15.70;99.90;;;;;;6241227;23;20020;-93
2021/10/08 14:07:05;;;;;;;1.92;0.65;;;15.70;99.90;;;;;;6218112;23;20019;-93
2021/10/08 14:12:01;;;;;;;1.35;0.63;;;15.70;99.90;;;;;;6265390;23;20016;-93
2021/10/08 14:14:28;;;;;;;0.73;0.50;;;15.70;99.90;;;;;;6240216;23;20031;-93
2021/10/08 14:16:55;;;;;;;0.43;0.17;;;15.70;99.90;;;;;;6240086;23;20008;-93
2021/10/08 14:19:22;;;;;;;1.13;0.55;;;15.70;99.90;;;;;;6240265;23;20023;-93
2021/10/08 14:21:48;;;;;;;0.63;0.55;;;15.70;99.90;;;;;;6239327;23;20019;-93
2021/10/08 14:24:16;;;;;;;0.95;0.52;;;15.70;99.90;;;;;;6239944;23;20020;-94
2021/10/08 14:26:42;;;;;;;1.08;0.63;;;15.70;99.90;;;;;;6240260;23;20445;-94
2021/10/08 14:29:13;;;;;;;1.02;0.45;;;15.70;99.90;;;;;;6216369;23;20041;-94
2021/10/08 14:31:40;;;;;;;2.08;1.08;;;15.70;99.90;;;;;;6214912;23;20012;-94
2021/10/08 14:34:07;;;;;;;0.98;0.57;;;15.60;99.90;;;;;;6239553;23;20467;-94
2021/10/08 14:36:34;;;;;;;2.90;0.50;;;15.50;99.90;;;;;;6239553;23;20022;-94
2021/10/08 14:39:01;;;;;;;1.50;0.63;;;15.60;99.90;;;;;;6188736;23;20094;-93
2021/10/08 14:41:28;;;;;;;1.45;0.50;;;15.60;99.90;;;;;;6239199;23;20059;-94
2021/10/08 14:44:00;;;;;;;1.00;0.57;;;15.70;99.90;;;;;;6237287;23;20023;-94
2021/10/08 14:46:27;;;;;;;1.67;0.80;;;15.50;99.90;;;;;;6215733;23;20062;-94
2021/10/08 14:49:02;;;;;;;0.77;0.43;;;15.50;99.90;;;;;;6238848;23;20079;-91
2021/10/08 14:51:31;;;;;;;1.25;0.65;;;15.40;99.90;;;;;;6215765;23;20012;-93
2021/10/08 14:54:11;;;;;;;0.77;0.57;;;15.40;99.90;;;;;;6239414;23;20008;-93
2021/10/08 14:59:26;;;;;;;1.05;0.77;;;15.20;99.90;;;;;;6264700;23;20020;-93
2021/10/08 15:01:56;;;;;;;0.90;0.65;;;15.40;99.90;;;;;;6238468;23;20024;-93
2021/10/08 15:04:36;;;;;;;1.08;0.70;;;15.30;99.90;;;;;;6244676;23;20031;-93
2021/10/08 15:07:04;;;;;;;1.30;0.70;;;15.40;99.90;;;;;;6214129;23;20074;-94
2021/10/08 15:09:33;;;;;;;1.00;0.70;;;15.30;99.90;;;;;;6239036;23;20095;-93
2021/10/08 15:12:01;;;;;;;1.30;0.75;;;15.20;99.90;;;;;;6239157;23;20016;-94
2021/10/08 15:14:28;;;;;;;1.02;0.63;;;15.30;99.90;;;;;;6239262;23;20070;-94
2021/10/08 15:16:55;;;;;;;1.75;1.02;;;15.30;99.90;;;;;;6239293;23;20016;-94
2021/10/08 15:19:23;;;;;;;1.95;0.88;;;15.20;99.90;;;;;;6238883;23;20074;-94
2021/10/08 15:21:53;;;;;;;1.55;0.50;;;15.20;99.90;;;;;;6238448;23;20449;-93
2021/10/08 15:24:19;;;;;;;0.45;0.38;;;15.10;99.90;;;;;;6237971;23;20074;-92
2021/10/08 15:26:46;;;;;;;0.45;0.30;;;15.10;99.90;;;;;;6212839;23;20012;-92
2021/10/08 15:29:13;;;;;;;1.10;0.63;;;15.00;99.90;;;;;;6237930;23;20042;-91
2021/10/08 15:31:39;;;;;;;0.57;0.50;;;15.00;99.90;;;;;;6238777;23;20091;-92
2021/10/08 15:34:06;;;;;;;1.25;0.63;;;15.00;99.90;;;;;;6237387;23;20020;-91
2021/10/08 15:36:33;;;;;;;0.30;0.30;;;14.90;99.90;;;;;;6237955;23;20012;-90
2021/10/08 15:39:00;;;;;;;0.98;0.50;;;14.80;99.90;;;;;;6213085;23;20107;-90
2021/10/08 15:41:27;;;;;;;0.52;0.40;;;14.80;99.90;;;;;;6238114;23;20012;-90
2021/10/08 15:43:53;;;;;;;1.08;0.30;;;14.70;99.90;;;;;;6213386;23;20096;-90
2021/10/08 15:46:20;;;;;;;0.47;0.43;;;14.70;99.90;;;;;;6238015;23;20022;-90
2021/10/08 15:48:47;;;;;;;1.35;0.75;;;14.70;99.90;;;;;;6213246;23;20015;-90
2021/10/08 15:51:16;;;;;;;0.10;0.10;;;14.60;99.90;;;;;;6238420;23;20016;-91
2021/10/08 15:53:43;;;;;;;0.20;0.15;;;14.50;99.90;;;;;;6238173;23;20012;-90
2021/10/08 15:56:10;;;;;;;0.03;0.03;;;14.50;99.90;;;;;;6238127;23;20019;-89
2021/10/08 15:58:36;;;;;;;0.28;0.20;;;14.40;99.90;;;;;;6213290;23;20048;-90
2021/10/08 16:01:03;;;;;;;0.43;0.20;;;14.30;99.90;;;;;;6237669;23;20381;-90
2021/10/08 16:03:30;;;;;;;0.10;0.10;;;14.20;99.90;;;;;;6213384;23;20536;-92
2021/10/08 16:06:47;;;;;;;0.05;0.03;;;14.10;99.90;;;;;;6189692;23;20016;-95
2021/10/08 16:31:11;;;;;;;0.35;0.30;;;13.30;99.90;;;;;;6291950;22;20024;-90
2021/10/08 16:33:39;;;;;;;0.20;0.13;;;13.20;99.90;;;;;;6239497;23;20341;-89
2021/10/08 16:36:11;;;;;;;0.35;0.30;;;13.10;99.90;;;;;;6264608;23;20463;-91
2021/10/08 16:38:39;;;;;;;0.08;0.08;;;13.00;99.90;;;;;;6216208;23;20048;-90
2021/10/08 16:41:06;;;;;;;0.43;0.28;;;12.90;99.90;;;;;;6239841;23;20023;-90
2021/10/08 16:43:33;;;;;;;0.10;0.10;;;12.80;99.90;;;;;;6240077;23;20016;-90
2021/10/08 16:46:00;;;;;;;0.17;0.10;;;12.70;99.90;;;;;;6214823;23;20388;-92
2021/10/08 16:48:27;;;;;;;0.10;0.10;;;12.70;99.90;;;;;;6190259;23;20016;-90
2021/10/08 16:50:54;;;;;;;0.00;0.00;;;12.60;99.90;;;;;;6239031;23;20008;-90
2021/10/08 16:53:23;;;;;;;0.00;0.00;;;12.50;99.90;;;;;;6214910;23;20463;-90
2021/10/08 16:55:50;;;;;;;0.20;0.15;;;12.50;99.90;;;;;;6216093;23;20020;-90
2021/10/08 16:58:18;;;;;;;0.25;0.13;;;12.40;99.90;;;;;;6189639;23;20099;-91
2021/10/08 17:00:45;;;;;;;0.22;0.13;;;12.30;99.90;;;;;;6214498;23;20016;-90
2021/10/08 17:03:13;;;;;;;0.38;0.20;;;12.20;99.90;;;;;;6213920;23;20449;-89
2021/10/08 17:05:45;;;;;;;0.00;0.00;;;12.10;99.90;;;;;;6214838;23;20013;-91
2021/10/08 17:08:12;;;;;;;0.00;0.00;;;12.00;99.90;;;;;;6214807;23;20095;-92
2021/10/08 17:10:39;;;;;;;0.00;0.00;;;12.00;99.90;;;;;;6218080;22;20047;-91
2021/10/08 17:13:06;;;;;;;0.00;0.00;;;11.90;99.90;;;;;;6246415;22;19996;-92
2021/10/08 17:15:33;;;;;;;0.05;0.05;;;11.80;99.90;;;;;;6270500;22;20042;-92
2021/10/08 17:18:00;;;;;;;0.00;0.00;;;11.80;99.90;;;;;;6269581;22;20368;-92
2021/10/08 17:20:27;;;;;;;0.15;0.10;;;11.70;99.90;;;;;;6270068;22;20108;-91
2021/10/08 17:22:55;;;;;;;0.32;0.25;;;11.70;99.90;;;;;;6270474;22;20016;-92
2021/10/08 17:25:29;;;;;;;0.32;0.28;;;11.60;99.90;;;;;;6246686;22;20016;-92
2021/10/08 17:28:01;;;;;;;0.10;0.10;;;11.50;99.90;;;;;;6224187;22;20007;-93
2021/10/08 17:36:07;;;;;;;0.32;0.20;;;11.40;99.90;;;;;;6295987;22;20073;-91
2021/10/08 17:38:36;;;;;;;0.00;0.00;;;11.30;99.90;;;;;;6271422;22;20015;-91
2021/10/08 17:41:03;;;;;;;0.05;0.05;;;11.20;99.90;;;;;;6272231;22;20051;-93
2021/10/08 17:43:30;;;;;;;0.20;0.15;;;11.20;99.90;;;;;;6272025;22;20016;-91
2021/10/08 17:45:57;;;;;;;0.35;0.20;;;11.20;99.90;;;;;;6273179;22;20019;-93
2021/10/08 17:48:29;;;;;;;0.00;0.00;;;10.90;99.90;;;;;;6247668;22;20008;-91
2021/10/08 17:50:57;;;;;;;0.00;0.00;;;11.10;99.90;;;;;;6272144;22;20018;-92
2021/10/08 17:53:27;;;;;;;0.10;0.10;;;11.00;99.90;;;;;;6272633;22;20090;-91
2021/10/08 17:55:59;;;;;;;0.00;0.00;;;11.00;99.90;;;;;;6247952;22;20065;-93
2021/10/08 17:58:26;;;;;;;0.20;0.13;;;10.90;99.90;;;;;;6273151;22;20045;-94
2021/10/08 18:01:02;;;;;;;0.10;0.10;;;10.90;99.90;;;;;;6271841;22;20047;-91
2021/10/08 18:03:36;;;;;;;;;;;10.90;99.90;;;;;;6271550;22;20012;-91
2021/10/08 18:06:06;;;;;;;0.05;0.05;;;10.80;99.90;;;;;;6270821;22;20312;-92
2021/10/08 18:08:37;;;;;;;0.47;0.10;;;10.80;99.90;;;;;;6271206;22;20012;-92
2021/10/08 18:11:04;;;;;;;0.10;0.10;;;10.80;99.90;;;;;;6271320;22;20383;-91
2021/10/08 18:13:32;;;;;;;0.00;0.00;;;10.70;99.90;;;;;;6271205;22;20011;-92
2021/10/08 18:15:59;;;;;;;0.25;0.20;;;10.70;99.90;;;;;;6270371;22;20011;-92
2021/10/08 18:18:25;;;;;;;0.28;0.10;;;10.70;99.90;;;;;;6270386;22;20377;-93
2021/10/08 18:20:53;;;;;;;0.00;0.00;;;10.60;99.90;;;;;;6270991;22;20039;-92
2021/10/08 18:23:21;;;;;;;0.10;0.10;;;10.20;99.90;;;;;;6270728;22;20057;-92
2021/10/08 18:25:48;;;;;;;0.00;0.00;;;10.50;99.90;;;;;;6269654;22;20028;-92
2021/10/08 18:28:15;;;;;;;0.00;0.00;;;10.50;99.90;;;;;;6270050;22;20018;-92
2021/10/08 18:30:46;;;;;;;0.00;0.00;;;10.40;99.90;;;;;;6223211;22;20012;-92
2021/10/08 18:33:14;;;;;;;0.00;0.00;;;10.30;99.90;;;;;;6247255;22;20087;-92
2021/10/08 18:35:42;;;;;;;0.05;0.05;;;10.30;99.90;;;;;;6271996;22;20011;-93
2021/10/08 18:38:09;;;;;;;0.13;0.13;;;10.30;99.90;;;;;;6270853;22;20016;-92
2021/10/08 18:40:39;;;;;;;0.00;0.00;;;10.30;99.90;;;;;;6271372;22;20034;-92
2021/10/08 18:43:06;;;;;;;0.10;0.10;;;10.30;99.90;;;;;;6221995;22;20031;-92
2021/10/08 18:45:33;;;;;;;0.13;0.10;;;10.30;99.90;;;;;;6271543;22;20012;-93
2021/10/08 18:48:00;;;;;;;0.00;0.00;;;10.30;99.90;;;;;;6270300;22;20015;-94
2021/10/08 18:50:29;;;;;;;0.03;0.03;;;10.20;99.90;;;;;;6269700;22;20011;-93
2021/10/08 18:52:58;;;;;;;0.10;0.10;;;10.20;99.90;;;;;;6269393;22;20077;-94
2021/10/08 18:55:28;;;;;;;0.10;0.10;;;10.20;99.90;;;;;;6244055;22;20698;-94
2021/10/08 18:57:55;;;;;;;0.10;0.10;;;10.20;99.90;;;;;;6268999;22;20050;-94
2021/10/08 19:00:22;;;;;;;0.10;0.10;;;10.30;99.90;;;;;;6268675;22;20012;-94
2021/10/08 19:02:49;;;;;;;0.10;0.10;;;10.10;99.90;;;;;;6268938;22;20019;-94
2021/10/08 19:05:16;;;;;;;0.00;0.00;;;10.10;99.90;;;;;;6218609;22;20015;-94
2021/10/08 19:07:48;;;;;;;0.28;0.28;;;9.70;99.90;;;;;;6269018;22;20015;-93
2021/10/08 19:12:55;;;;;;;0.00;0.00;;;10.10;99.90;;;;;;6294586;22;20023;-94
2021/10/08 19:15:31;;;;;;;0.05;0.05;;;10.10;99.90;;;;;;6245003;22;20012;-93
2021/10/08 19:18:21;;;;;;;0.00;0.00;;;10.20;99.90;;;;;;6245849;22;20011;-94
2021/10/08 19:20:48;;;;;;;0.10;0.10;;;10.10;99.90;;;;;;6248649;22;20459;-94
2021/10/08 19:23:20;;;;;;;0.10;0.10;;;10.20;99.90;;;;;;6268671;22;20043;-93
2021/10/08 19:25:49;;;;;;;0.30;0.13;;;10.20;99.90;;;;;;6271993;22;20173;-93
2021/10/08 19:28:17;;;;;;;0.10;0.10;;;10.20;99.90;;;;;;6270264;22;20008;-94
2021/10/08 19:30:45;;;;;;;0.10;0.10;;;10.20;99.90;;;;;;6269980;22;20094;-94
2021/10/08 19:33:12;;;;;;;0.00;0.00;;;10.30;99.90;;;;;;6271796;22;20016;-93
2021/10/08 19:35:39;;;;;;;0.00;0.00;;;10.30;99.90;;;;;;6245195;22;20024;-94
2021/10/08 19:38:06;;;;;;;0.10;0.10;;;10.30;99.90;;;;;;6268795;22;20321;-94
2021/10/08 19:40:33;;;;;;;0.10;0.10;;;10.20;99.90;;;;;;6268604;22;20012;-93
2021/10/08 19:43:05;;;;;;;0.08;0.08;;;10.20;99.90;;;;;;6268409;22;20019;-93
2021/10/08 19:45:36;;;;;;;0.00;0.00;;;10.20;99.90;;;;;;6268091;22;20208;-94
2021/10/08 19:48:03;;;;;;;0.10;0.10;;;10.30;99.90;;;;;;6268871;22;20011;-94
2021/10/08 19:50:31;;;;;;;0.00;0.00;;;10.10;99.90;;;;;;6267877;22;20560;-93
2021/10/08 19:52:58;;;;;;;0.15;0.15;;;10.10;99.90;;;;;;6268236;22;20012;-94
2021/10/08 19:55:28;;;;;;;0.00;0.00;;;10.10;99.90;;;;;;6267819;22;20091;-94
2021/10/08 19:58:01;;;;;;;0.03;0.03;;;10.10;99.90;;;;;;6269297;22;20018;-94
2021/10/08 20:00:28;;;;;;;0.20;0.20;;;10.00;99.90;;;;;;6267626;22;20015;-94
2021/10/08 20:02:58;;;;;;;0.00;0.00;;;10.00;99.90;;;;;;6268893;22;20042;-94
2021/10/08 20:05:38;;;;;;;0.00;0.00;;;9.90;99.90;;;;;;6268234;22;20519;-94
2021/10/08 20:16:10;;;;;;;0.00;0.00;;;9.80;99.90;;;;;;6293770;22;20444;-94
2021/10/08 20:18:41;;;;;;;0.00;0.00;;;9.80;99.90;;;;;;6268596;22;20407;-94
2021/10/08 20:21:15;;;;;;;0.00;0.00;;;9.80;99.90;;;;;;6268658;22;20016;-93
2021/10/08 20:23:42;;;;;;;0.00;0.00;;;9.70;99.90;;;;;;6268297;22;20333;-94
2021/10/08 20:26:10;;;;;;;0.28;0.22;;;9.70;99.90;;;;;;6268303;22;20077;-94
2021/10/08 20:28:37;;;;;;;0.10;0.10;;;9.70;99.90;;;;;;6268244;22;20590;-93
2021/10/08 20:31:05;;;;;;;0.08;0.08;;;9.70;99.90;;;;;;6267650;22;20023;-94
2021/10/08 20:33:41;;;;;;;0.00;0.00;;;9.60;99.90;;;;;;6268444;22;20016;-95
2021/10/08 20:36:13;;;;;;;0.00;0.00;;;9.60;99.90;;;;;;6244284;22;20016;-95
2021/10/08 20:38:52;;;;;;;0.08;0.08;;;9.80;99.90;;;;;;6268424;22;20065;-95
2021/10/08 20:41:19;;;;;;;0.05;0.05;;;9.60;99.90;;;;;;6268041;22;20095;-94
2021/10/08 20:43:56;;;;;;;0.00;0.00;;;9.60;99.90;;;;;;6268921;22;20023;-95
2021/10/08 20:46:36;;;;;;;0.00;0.00;;;9.60;99.90;;;;;;6267655;22;20023;-96
2021/10/08 20:49:03;;;;;;;0.00;0.00;;;9.80;99.90;;;;;;6268208;22;20324;-95
2021/10/08 20:51:37;;;;;;;0.08;0.08;;;9.60;99.90;;;;;;6268143;22;20019;-95
2021/10/08 20:54:06;;;;;;;0.00;0.00;;;9.60;99.90;;;;;;6270194;22;20049;-95
2021/10/08 20:56:36;;;;;;;0.08;0.08;;;9.50;99.90;;;;;;6270258;22;20045;-95
2021/10/08 20:59:04;;;;;;;0.00;0.00;;;9.60;99.90;;;;;;6271038;22;20018;-96
2021/10/08 21:01:36;;;;;;;0.03;0.03;;;9.60;99.90;;;;;;6270398;22;20459;-94
2021/10/08 21:04:06;;;;;;;0.03;0.03;;;9.60;99.90;;;;;;6269921;22;20051;-95
2021/10/08 21:06:33;;;;;;;0.10;0.10;;;9.60;99.90;;;;;;6270334;22;20016;-95
2021/10/08 21:09:01;;;;;;;0.45;0.20;;;9.60;99.90;;;;;;6270738;22;20022;-95
2021/10/08 21:11:40;;;;;;;0.10;0.10;;;9.70;99.90;;;;;;6245602;22;20051;-95
2021/10/08 21:14:07;;;;;;;0.00;0.00;;;9.70;99.90;;;;;;6270347;22;20531;-95
2021/10/08 21:16:34;;;;;;;0.20;0.15;;;9.80;99.90;;;;;;6269750;22;20018;-94
2021/10/08 21:19:01;;;;;;;0.00;0.00;;;9.80;99.90;;;;;;6269935;22;20047;-94
2021/10/08 21:21:30;;;;;;;0.00;0.00;;;9.80;99.90;;;;;;6244481;22;20022;-94
2021/10/08 21:23:57;;;;;;;0.08;0.08;;;9.80;99.90;;;;;;6270104;22;20027;-95
2021/10/08 21:26:24;;;;;;;0.10;0.10;;;9.90;99.90;;;;;;6270119;22;20012;-94
2021/10/08 21:28:52;;;;;;;0.00;0.00;;;9.90;99.90;;;;;;6219838;22;20014;-93
2021/10/08 21:31:19;;;;;;;0.00;0.00;;;9.90;99.90;;;;;;6268511;22;20019;-93
2021/10/08 21:33:48;;;;;;;0.10;0.10;;;9.90;99.90;;;;;;6269873;22;20015;-94
2021/10/08 21:36:22;;;;;;;0.45;0.28;;;9.80;99.90;;;;;;6270073;22;20015;-94
2021/10/08 21:38:55;;;;;;;0.08;0.08;;;9.50;99.90;;;;;;6269719;22;20016;-94
2021/10/08 21:43:56;;;;;;;0.10;0.10;;;9.60;99.90;;;;;;6296076;22;20095;-94
2021/10/08 21:46:23;;;;;;;0.08;0.08;;;9.60;99.90;;;;;;6269524;22;20047;-94
2021/10/08 21:48:50;;;;;;;0.00;0.00;;;9.60;99.90;;;;;;6269930;22;20039;-94
2021/10/08 21:51:17;;;;;;;0.17;0.17;;;9.60;99.90;;;;;;6270205;22;20335;-94
2021/10/08 21:53:44;;;;;;;0.22;0.22;;;9.60;99.90;;;;;;6244859;22;20012;-94
2021/10/08 21:56:14;;;;;;;0.10;0.10;;;9.60;99.90;;;;;;6270093;22;20018;-94
2021/10/08 21:58:41;;;;;;;0.08;0.08;;;9.70;99.90;;;;;;6269380;22;20016;-94
2021/10/08 22:01:20;;;;;;;0.00;0.00;;;9.90;99.90;;;;;;6269574;22;20016;-94
2021/10/08 22:03:49;;;;;;;0.10;0.10;;;9.80;99.90;;;;;;6269076;22;20016;-94
2021/10/08 22:06:16;;;;;;;0.03;0.03;;;9.90;99.90;;;;;;6269584;22;20069;-94
2021/10/08 22:08:43;;;;;;;0.00;0.00;;;10.00;99.90;;;;;;6244728;22;20011;-94
2021/10/08 22:11:11;;;;;;;0.10;0.10;;;10.00;99.90;;;;;;6269800;22;20046;-95
2021/10/08 22:13:39;;;;;;;0.08;0.08;;;10.10;99.90;;;;;;6244129;22;20008;-94